sensor_id;sensor_type;location;lat;lon;timestamp;P1;durP1;ratioP1;P2;durP2;ratioP2
14191;SDS011;7177;48.572;7.838;2023-11-22T00:02:20;14.63;;;11.57;;
14191;SDS011;7177;48.572;7.838;2023-11-22T00:04:46;18.27;;;12.13;;
14191;SDS011;7177;48.572;7.838;2023-11-22T00:07:11;19.03;;;13.33;;
14191;SDS011;7177;48.572;7.838;2023-11-22T00:09:37;18.43;;;12.13;;
14191;SDS011;7177;48.572;7.838;2023-11-22T00:12:03;18.20;;;12.77;;
14191;SDS011;7177;48.572;7.838;2023-11-22T00:14:28;18.10;;;12.00;;
14191;SDS011;7177;48.572;7.838;2023-11-22T00:16:54;23.17;;;15.67;;
14191;SDS011;7177;48.572;7.838;2023-11-22T00:19:19;21.33;;;15.17;;
14191;SDS011;7177;48.572;7.838;2023-11-22T00:21:47;25.77;;;13.83;;
14191;SDS011;7177;48.572;7.838;2023-11-22T00:24:13;21.33;;;13.20;;
14191;SDS011;7177;48.572;7.838;2023-11-22T00:26:39;14.30;;;10.00;;
14191;SDS011;7177;48.572;7.838;2023-11-22T00:29:04;12.67;;;9.43;;
14191;SDS011;7177;48.572;7.838;2023-11-22T00:31:30;12.00;;;8.67;;
14191;SDS011;7177;48.572;7.838;2023-11-22T00:33:56;11.60;;;9.50;;
14191;SDS011;7177;48.572;7.838;2023-11-22T00:36:21;14.67;;;9.30;;
14191;SDS011;7177;48.572;7.838;2023-11-22T00:38:47;13.33;;;9.73;;
14191;SDS011;7177;48.572;7.838;2023-11-22T00:41:13;11.27;;;9.77;;
14191;SDS011;7177;48.572;7.838;2023-11-22T00:43:39;9.67;;;8.20;;
14191;SDS011;7177;48.572;7.838;2023-11-22T00:46:05;11.50;;;8.80;;
14191;SDS011;7177;48.572;7.838;2023-11-22T00:48:31;9.97;;;8.63;;
14191;SDS011;7177;48.572;7.838;2023-11-22T00:50:56;12.73;;;9.90;;
14191;SDS011;7177;48.572;7.838;2023-11-22T00:53:22;12.60;;;10.30;;
14191;SDS011;7177;48.572;7.838;2023-11-22T00:55:48;12.27;;;11.00;;
14191;SDS011;7177;48.572;7.838;2023-11-22T00:58:14;13.73;;;11.27;;
14191;SDS011;7177;48.572;7.838;2023-11-22T01:00:39;13.47;;;11.20;;
14191;SDS011;7177;48.572;7.838;2023-11-22T01:03:05;13.60;;;11.30;;
14191;SDS011;7177;48.572;7.838;2023-11-22T01:05:34;14.17;;;12.37;;
14191;SDS011;7177;48.572;7.838;2023-11-22T01:07:59;13.97;;;11.30;;
14191;SDS011;7177;48.572;7.838;2023-11-22T01:10:25;14.27;;;10.33;;
14191;SDS011;7177;48.572;7.838;2023-11-22T01:12:50;14.17;;;11.20;;
14191;SDS011;7177;48.572;7.838;2023-11-22T01:15:16;11.27;;;9.87;;
14191;SDS011;7177;48.572;7.838;2023-11-22T01:17:41;11.93;;;9.87;;
14191;SDS011;7177;48.572;7.838;2023-11-22T01:20:07;11.67;;;9.03;;
14191;SDS011;7177;48.572;7.838;2023-11-22T01:22:35;11.13;;;8.80;;
14191;SDS011;7177;48.572;7.838;2023-11-22T01:25:02;9.73;;;8.53;;
14191;SDS011;7177;48.572;7.838;2023-11-22T01:27:29;9.53;;;8.50;;
14191;SDS011;7177;48.572;7.838;2023-11-22T01:29:55;9.07;;;8.13;;
14191;SDS011;7177;48.572;7.838;2023-11-22T01:32:20;11.70;;;8.57;;
14191;SDS011;7177;48.572;7.838;2023-11-22T01:34:46;10.77;;;8.57;;
14191;SDS011;7177;48.572;7.838;2023-11-22T01:37:12;9.77;;;8.77;;
14191;SDS011;7177;48.572;7.838;2023-11-22T01:39:41;11.47;;;8.60;;
14191;SDS011;7177;48.572;7.838;2023-11-22T01:42:06;10.90;;;8.60;;
14191;SDS011;7177;48.572;7.838;2023-11-22T01:44:32;9.50;;;7.80;;
14191;SDS011;7177;48.572;7.838;2023-11-22T01:46:58;10.67;;;7.73;;
14191;SDS011;7177;48.572;7.838;2023-11-22T01:49:23;10.67;;;8.47;;
14191;SDS011;7177;48.572;7.838;2023-11-22T01:51:49;8.37;;;7.13;;
14191;SDS011;7177;48.572;7.838;2023-11-22T01:54:15;10.50;;;8.00;;
14191;SDS011;7177;48.572;7.838;2023-11-22T01:56:43;12.97;;;7.10;;
14191;SDS011;7177;48.572;7.838;2023-11-22T01:59:10;10.03;;;7.10;;
14191;SDS011;7177;48.572;7.838;2023-11-22T02:01:36;8.73;;;7.13;;
14191;SDS011;7177;48.572;7.838;2023-11-22T02:04:02;11.37;;;8.30;;
14191;SDS011;7177;48.572;7.838;2023-11-22T02:06:27;10.70;;;7.60;;
14191;SDS011;7177;48.572;7.838;2023-11-22T02:08:56;21.70;;;15.98;;
14191;SDS011;7177;48.572;7.838;2023-11-22T02:11:22;10.80;;;8.20;;
14191;SDS011;7177;48.572;7.838;2023-11-22T02:13:49;10.40;;;9.10;;
14191;SDS011;7177;48.572;7.838;2023-11-22T02:16:15;11.87;;;8.40;;
14191;SDS011;7177;48.572;7.838;2023-11-22T02:18:43;9.75;;;7.70;;
14191;SDS011;7177;48.572;7.838;2023-11-22T02:21:09;11.57;;;8.77;;
14191;SDS011;7177;48.572;7.838;2023-11-22T02:23:35;9.32;;;7.70;;
14191;SDS011;7177;48.572;7.838;2023-11-22T02:26:01;9.30;;;7.17;;
14191;SDS011;7177;48.572;7.838;2023-11-22T02:28:27;9.27;;;7.40;;
14191;SDS011;7177;48.572;7.838;2023-11-22T02:30:53;9.00;;;7.03;;
14191;SDS011;7177;48.572;7.838;2023-11-22T02:33:19;9.13;;;7.13;;
14191;SDS011;7177;48.572;7.838;2023-11-22T02:35:45;11.73;;;7.33;;
14191;SDS011;7177;48.572;7.838;2023-11-22T02:38:11;9.83;;;8.07;;
14191;SDS011;7177;48.572;7.838;2023-11-22T02:40:36;7.73;;;6.70;;
14191;SDS011;7177;48.572;7.838;2023-11-22T02:43:02;10.53;;;6.50;;
14191;SDS011;7177;48.572;7.838;2023-11-22T02:45:32;7.90;;;6.70;;
14191;SDS011;7177;48.572;7.838;2023-11-22T02:47:58;7.90;;;7.00;;
14191;SDS011;7177;48.572;7.838;2023-11-22T02:50:24;10.45;;;7.32;;
14191;SDS011;7177;48.572;7.838;2023-11-22T02:52:50;9.32;;;7.50;;
14191;SDS011;7177;48.572;7.838;2023-11-22T02:55:16;8.67;;;6.90;;
14191;SDS011;7177;48.572;7.838;2023-11-22T02:57:41;9.40;;;7.90;;
14191;SDS011;7177;48.572;7.838;2023-11-22T03:00:07;9.20;;;7.60;;
14191;SDS011;7177;48.572;7.838;2023-11-22T03:02:34;9.88;;;7.65;;
14191;SDS011;7177;48.572;7.838;2023-11-22T03:05:00;10.45;;;7.20;;
14191;SDS011;7177;48.572;7.838;2023-11-22T03:07:26;9.60;;;7.50;;
14191;SDS011;7177;48.572;7.838;2023-11-22T03:09:52;7.97;;;7.17;;
14191;SDS011;7177;48.572;7.838;2023-11-22T03:12:18;8.40;;;7.47;;
14191;SDS011;7177;48.572;7.838;2023-11-22T03:14:45;11.45;;;7.43;;
14191;SDS011;7177;48.572;7.838;2023-11-22T03:17:16;7.38;;;6.68;;
14191;SDS011;7177;48.572;7.838;2023-11-22T03:19:42;9.85;;;7.10;;
14191;SDS011;7177;48.572;7.838;2023-11-22T03:22:10;8.48;;;6.15;;
14191;SDS011;7177;48.572;7.838;2023-11-22T03:24:35;7.73;;;6.57;;
14191;SDS011;7177;48.572;7.838;2023-11-22T03:27:02;8.18;;;6.22;;
14191;SDS011;7177;48.572;7.838;2023-11-22T03:29:28;6.90;;;6.20;;
14191;SDS011;7177;48.572;7.838;2023-11-22T03:31:54;8.40;;;5.93;;
14191;SDS011;7177;48.572;7.838;2023-11-22T03:34:20;7.03;;;6.03;;
14191;SDS011;7177;48.572;7.838;2023-11-22T03:36:45;8.07;;;5.47;;
14191;SDS011;7177;48.572;7.838;2023-11-22T03:39:11;6.50;;;5.80;;
14191;SDS011;7177;48.572;7.838;2023-11-22T03:41:39;6.72;;;5.38;;
14191;SDS011;7177;48.572;7.838;2023-11-22T03:44:05;6.57;;;5.00;;
14191;SDS011;7177;48.572;7.838;2023-11-22T03:46:33;7.13;;;5.07;;
14191;SDS011;7177;48.572;7.838;2023-11-22T03:49:05;6.30;;;4.97;;
14191;SDS011;7177;48.572;7.838;2023-11-22T03:51:34;5.80;;;5.20;;
14191;SDS011;7177;48.572;7.838;2023-11-22T03:54:01;5.85;;;5.00;;
14191;SDS011;7177;48.572;7.838;2023-11-22T03:56:30;6.28;;;4.95;;
14191;SDS011;7177;48.572;7.838;2023-11-22T03:58:55;5.40;;;4.73;;
14191;SDS011;7177;48.572;7.838;2023-11-22T04:01:21;8.63;;;4.93;;
14191;SDS011;7177;48.572;7.838;2023-11-22T04:03:47;6.83;;;4.70;;
14191;SDS011;7177;48.572;7.838;2023-11-22T04:06:16;4.65;;;4.18;;
14191;SDS011;7177;48.572;7.838;2023-11-22T04:08:44;5.18;;;3.70;;
14191;SDS011;7177;48.572;7.838;2023-11-22T04:11:10;5.45;;;4.10;;
14191;SDS011;7177;48.572;7.838;2023-11-22T04:13:38;3.97;;;3.58;;
14191;SDS011;7177;48.572;7.838;2023-11-22T04:16:04;4.57;;;3.80;;
14191;SDS011;7177;48.572;7.838;2023-11-22T04:18:37;5.72;;;4.20;;
14191;SDS011;7177;48.572;7.838;2023-11-22T04:21:03;4.25;;;3.85;;
14191;SDS011;7177;48.572;7.838;2023-11-22T04:23:30;4.63;;;4.13;;
14191;SDS011;7177;48.572;7.838;2023-11-22T04:25:56;8.70;;;4.43;;
14191;SDS011;7177;48.572;7.838;2023-11-22T04:28:23;5.35;;;4.20;;
14191;SDS011;7177;48.572;7.838;2023-11-22T04:30:49;6.18;;;4.40;;
14191;SDS011;7177;48.572;7.838;2023-11-22T04:33:14;6.43;;;4.60;;
14191;SDS011;7177;48.572;7.838;2023-11-22T04:35:40;5.50;;;4.70;;
14191;SDS011;7177;48.572;7.838;2023-11-22T04:38:06;5.90;;;5.05;;
14191;SDS011;7177;48.572;7.838;2023-11-22T04:40:32;7.17;;;5.07;;
14191;SDS011;7177;48.572;7.838;2023-11-22T04:42:58;6.82;;;6.10;;
14191;SDS011;7177;48.572;7.838;2023-11-22T04:45:24;6.87;;;4.80;;
14191;SDS011;7177;48.572;7.838;2023-11-22T04:47:50;6.33;;;5.53;;
14191;SDS011;7177;48.572;7.838;2023-11-22T04:50:15;7.00;;;4.93;;
14191;SDS011;7177;48.572;7.838;2023-11-22T04:52:41;6.63;;;5.17;;
14191;SDS011;7177;48.572;7.838;2023-11-22T04:55:06;8.07;;;5.90;;
14191;SDS011;7177;48.572;7.838;2023-11-22T04:57:32;7.10;;;6.40;;
14191;SDS011;7177;48.572;7.838;2023-11-22T04:59:58;7.60;;;5.50;;
14191;SDS011;7177;48.572;7.838;2023-11-22T05:02:25;8.30;;;6.03;;
14191;SDS011;7177;48.572;7.838;2023-11-22T05:04:51;6.93;;;5.50;;
14191;SDS011;7177;48.572;7.838;2023-11-22T05:07:17;10.20;;;4.90;;
14191;SDS011;7177;48.572;7.838;2023-11-22T05:09:44;5.68;;;5.07;;
14191;SDS011;7177;48.572;7.838;2023-11-22T05:12:09;4.53;;;4.03;;
14191;SDS011;7177;48.572;7.838;2023-11-22T05:14:36;6.07;;;4.28;;
14191;SDS011;7177;48.572;7.838;2023-11-22T05:17:02;5.75;;;4.60;;
14191;SDS011;7177;48.572;7.838;2023-11-22T05:19:29;5.03;;;4.45;;
14191;SDS011;7177;48.572;7.838;2023-11-22T05:21:55;6.18;;;4.30;;
14191;SDS011;7177;48.572;7.838;2023-11-22T05:24:21;5.37;;;4.23;;
14191;SDS011;7177;48.572;7.838;2023-11-22T05:26:46;5.23;;;4.00;;
14191;SDS011;7177;48.572;7.838;2023-11-22T05:29:12;6.47;;;4.53;;
14191;SDS011;7177;48.572;7.838;2023-11-22T05:31:38;5.70;;;4.78;;
14191;SDS011;7177;48.572;7.838;2023-11-22T05:34:03;5.43;;;4.17;;
14191;SDS011;7177;48.572;7.838;2023-11-22T05:36:29;5.50;;;3.90;;
14191;SDS011;7177;48.572;7.838;2023-11-22T05:38:55;9.00;;;4.50;;
14191;SDS011;7177;48.572;7.838;2023-11-22T05:41:24;5.55;;;4.63;;
14191;SDS011;7177;48.572;7.838;2023-11-22T05:43:52;7.05;;;4.68;;
14191;SDS011;7177;48.572;7.838;2023-11-22T05:46:19;7.13;;;5.23;;
14191;SDS011;7177;48.572;7.838;2023-11-22T05:48:47;7.00;;;4.95;;
14191;SDS011;7177;48.572;7.838;2023-11-22T05:51:15;8.02;;;5.95;;
14191;SDS011;7177;48.572;7.838;2023-11-22T05:53:40;6.65;;;5.70;;
14191;SDS011;7177;48.572;7.838;2023-11-22T05:56:06;8.10;;;5.90;;
14191;SDS011;7177;48.572;7.838;2023-11-22T05:58:33;7.80;;;6.07;;
14191;SDS011;7177;48.572;7.838;2023-11-22T06:01:02;8.90;;;6.00;;
14191;SDS011;7177;48.572;7.838;2023-11-22T06:03:27;6.50;;;5.70;;
14191;SDS011;7177;48.572;7.838;2023-11-22T06:05:53;7.10;;;5.80;;
14191;SDS011;7177;48.572;7.838;2023-11-22T06:08:18;8.13;;;6.37;;
14191;SDS011;7177;48.572;7.838;2023-11-22T06:10:44;10.43;;;6.20;;
14191;SDS011;7177;48.572;7.838;2023-11-22T06:13:10;6.45;;;5.75;;
14191;SDS011;7177;48.572;7.838;2023-11-22T06:15:37;7.93;;;6.15;;
14191;SDS011;7177;48.572;7.838;2023-11-22T06:18:02;10.93;;;6.00;;
14191;SDS011;7177;48.572;7.838;2023-11-22T06:20:28;9.30;;;6.63;;
14191;SDS011;7177;48.572;7.838;2023-11-22T06:22:53;8.53;;;7.23;;
14191;SDS011;7177;48.572;7.838;2023-11-22T06:25:19;8.57;;;6.17;;
14191;SDS011;7177;48.572;7.838;2023-11-22T06:27:44;14.57;;;7.30;;
14191;SDS011;7177;48.572;7.838;2023-11-22T06:30:10;7.33;;;6.33;;
14191;SDS011;7177;48.572;7.838;2023-11-22T06:32:35;8.40;;;6.60;;
14191;SDS011;7177;48.572;7.838;2023-11-22T06:35:01;8.63;;;6.97;;
14191;SDS011;7177;48.572;7.838;2023-11-22T06:37:28;8.35;;;6.70;;
14191;SDS011;7177;48.572;7.838;2023-11-22T06:39:53;7.33;;;6.37;;
14191;SDS011;7177;48.572;7.838;2023-11-22T06:42:19;10.03;;;6.97;;
14191;SDS011;7177;48.572;7.838;2023-11-22T06:44:44;9.63;;;6.83;;
14191;SDS011;7177;48.572;7.838;2023-11-22T06:47:12;8.73;;;6.75;;
14191;SDS011;7177;48.572;7.838;2023-11-22T06:49:38;9.13;;;6.97;;
14191;SDS011;7177;48.572;7.838;2023-11-22T06:52:04;7.93;;;6.20;;
14191;SDS011;7177;48.572;7.838;2023-11-22T06:54:29;8.00;;;6.37;;
14191;SDS011;7177;48.572;7.838;2023-11-22T06:56:56;9.98;;;6.50;;
14191;SDS011;7177;48.572;7.838;2023-11-22T06:59:22;10.57;;;6.80;;
14191;SDS011;7177;48.572;7.838;2023-11-22T07:01:47;7.10;;;6.30;;
14191;SDS011;7177;48.572;7.838;2023-11-22T07:04:13;9.40;;;7.20;;
14191;SDS011;7177;48.572;7.838;2023-11-22T07:06:39;8.80;;;6.53;;
14191;SDS011;7177;48.572;7.838;2023-11-22T07:09:05;7.37;;;6.33;;
14191;SDS011;7177;48.572;7.838;2023-11-22T07:11:30;8.50;;;6.80;;
14191;SDS011;7177;48.572;7.838;2023-11-22T07:13:56;9.27;;;6.20;;
14191;SDS011;7177;48.572;7.838;2023-11-22T07:16:22;7.85;;;6.13;;
14191;SDS011;7177;48.572;7.838;2023-11-22T07:18:49;9.82;;;5.70;;
14191;SDS011;7177;48.572;7.838;2023-11-22T07:21:15;7.63;;;5.83;;
14191;SDS011;7177;48.572;7.838;2023-11-22T07:23:41;8.68;;;6.22;;
14191;SDS011;7177;48.572;7.838;2023-11-22T07:26:07;8.70;;;6.23;;
14191;SDS011;7177;48.572;7.838;2023-11-22T07:28:33;7.37;;;5.97;;
14191;SDS011;7177;48.572;7.838;2023-11-22T07:31:00;7.22;;;6.13;;
14191;SDS011;7177;48.572;7.838;2023-11-22T07:33:27;9.05;;;6.03;;
14191;SDS011;7177;48.572;7.838;2023-11-22T07:35:52;7.57;;;6.17;;
14191;SDS011;7177;48.572;7.838;2023-11-22T07:38:18;15.50;;;11.50;;
14191;SDS011;7177;48.572;7.838;2023-11-22T07:40:44;9.00;;;6.50;;
14191;SDS011;7177;48.572;7.838;2023-11-22T07:43:10;7.10;;;5.90;;
14191;SDS011;7177;48.572;7.838;2023-11-22T07:45:35;7.17;;;5.50;;
14191;SDS011;7177;48.572;7.838;2023-11-22T07:48:02;6.20;;;5.20;;
14191;SDS011;7177;48.572;7.838;2023-11-22T07:50:29;7.95;;;5.78;;
14191;SDS011;7177;48.572;7.838;2023-11-22T07:52:54;5.73;;;4.70;;
14191;SDS011;7177;48.572;7.838;2023-11-22T07:55:20;5.03;;;4.40;;
14191;SDS011;7177;48.572;7.838;2023-11-22T07:57:47;6.32;;;4.30;;
14191;SDS011;7177;48.572;7.838;2023-11-22T08:00:15;5.68;;;4.00;;
14191;SDS011;7177;48.572;7.838;2023-11-22T08:02:44;7.55;;;4.80;;
14191;SDS011;7177;48.572;7.838;2023-11-22T08:05:10;6.03;;;5.05;;
14191;SDS011;7177;48.572;7.838;2023-11-22T08:07:37;6.23;;;4.80;;
14191;SDS011;7177;48.572;7.838;2023-11-22T08:10:06;5.07;;;4.57;;
14191;SDS011;7177;48.572;7.838;2023-11-22T08:12:35;6.75;;;6.05;;
14191;SDS011;7177;48.572;7.838;2023-11-22T08:15:04;6.10;;;4.77;;
14191;SDS011;7177;48.572;7.838;2023-11-22T08:17:30;5.97;;;5.00;;
14191;SDS011;7177;48.572;7.838;2023-11-22T08:19:57;7.70;;;6.10;;
14191;SDS011;7177;48.572;7.838;2023-11-22T08:22:24;7.43;;;5.10;;
14191;SDS011;7177;48.572;7.838;2023-11-22T08:24:53;7.07;;;5.23;;
14191;SDS011;7177;48.572;7.838;2023-11-22T08:27:18;8.63;;;6.37;;
14191;SDS011;7177;48.572;7.838;2023-11-22T08:29:44;9.23;;;6.00;;
14191;SDS011;7177;48.572;7.838;2023-11-22T08:32:12;7.07;;;4.60;;
14191;SDS011;7177;48.572;7.838;2023-11-22T08:34:38;5.87;;;4.33;;
14191;SDS011;7177;48.572;7.838;2023-11-22T08:37:03;5.33;;;3.87;;
14191;SDS011;7177;48.572;7.838;2023-11-22T08:39:29;5.13;;;4.40;;
14191;SDS011;7177;48.572;7.838;2023-11-22T08:41:54;6.37;;;4.40;;
14191;SDS011;7177;48.572;7.838;2023-11-22T08:44:20;5.17;;;4.07;;
14191;SDS011;7177;48.572;7.838;2023-11-22T08:46:46;4.23;;;3.70;;
14191;SDS011;7177;48.572;7.838;2023-11-22T08:49:12;3.93;;;3.50;;
14191;SDS011;7177;48.572;7.838;2023-11-22T08:51:37;4.50;;;3.43;;
14191;SDS011;7177;48.572;7.838;2023-11-22T08:54:03;4.43;;;3.80;;
14191;SDS011;7177;48.572;7.838;2023-11-22T08:56:29;4.23;;;3.33;;
14191;SDS011;7177;48.572;7.838;2023-11-22T08:58:54;5.20;;;3.53;;
14191;SDS011;7177;48.572;7.838;2023-11-22T09:01:20;3.77;;;3.30;;
14191;SDS011;7177;48.572;7.838;2023-11-22T09:03:46;4.87;;;3.10;;
14191;SDS011;7177;48.572;7.838;2023-11-22T09:06:12;3.70;;;3.10;;
14191;SDS011;7177;48.572;7.838;2023-11-22T09:08:38;4.17;;;3.10;;
14191;SDS011;7177;48.572;7.838;2023-11-22T09:11:03;5.03;;;3.27;;
14191;SDS011;7177;48.572;7.838;2023-11-22T09:13:31;4.77;;;3.50;;
14191;SDS011;7177;48.572;7.838;2023-11-22T09:15:57;4.63;;;3.03;;
14191;SDS011;7177;48.572;7.838;2023-11-22T09:18:23;3.97;;;3.47;;
14191;SDS011;7177;48.572;7.838;2023-11-22T09:20:48;5.33;;;3.73;;
14191;SDS011;7177;48.572;7.838;2023-11-22T09:23:14;6.37;;;4.40;;
14191;SDS011;7177;48.572;7.838;2023-11-22T09:25:40;5.47;;;4.20;;
14191;SDS011;7177;48.572;7.838;2023-11-22T09:28:05;4.23;;;3.10;;
14191;SDS011;7177;48.572;7.838;2023-11-22T09:30:32;3.57;;;2.80;;
14191;SDS011;7177;48.572;7.838;2023-11-22T09:33:03;3.93;;;2.93;;
14191;SDS011;7177;48.572;7.838;2023-11-22T09:35:32;5.70;;;3.67;;
14191;SDS011;7177;48.572;7.838;2023-11-22T09:37:58;4.83;;;2.97;;
14191;SDS011;7177;48.572;7.838;2023-11-22T09:40:25;6.50;;;2.80;;
14191;SDS011;7177;48.572;7.838;2023-11-22T09:42:57;3.20;;;2.60;;
14191;SDS011;7177;48.572;7.838;2023-11-22T09:45:24;3.50;;;2.80;;
14191;SDS011;7177;48.572;7.838;2023-11-22T09:47:50;3.90;;;3.10;;
14191;SDS011;7177;48.572;7.838;2023-11-22T09:50:20;3.80;;;3.17;;
14191;SDS011;7177;48.572;7.838;2023-11-22T09:52:55;4.03;;;3.63;;
14191;SDS011;7177;48.572;7.838;2023-11-22T09:55:25;6.10;;;3.60;;
14191;SDS011;7177;48.572;7.838;2023-11-22T09:57:53;3.93;;;2.90;;
14191;SDS011;7177;48.572;7.838;2023-11-22T10:00:23;4.03;;;3.40;;
14191;SDS011;7177;48.572;7.838;2023-11-22T10:02:52;4.70;;;2.90;;
14191;SDS011;7177;48.572;7.838;2023-11-22T10:05:18;5.00;;;3.47;;
14191;SDS011;7177;48.572;7.838;2023-11-22T10:07:44;5.20;;;3.43;;
14191;SDS011;7177;48.572;7.838;2023-11-22T10:10:12;4.30;;;3.33;;
14191;SDS011;7177;48.572;7.838;2023-11-22T10:12:42;4.27;;;3.63;;
14191;SDS011;7177;48.572;7.838;2023-11-22T10:15:14;5.67;;;3.20;;
14191;SDS011;7177;48.572;7.838;2023-11-22T10:17:44;4.50;;;3.50;;
14191;SDS011;7177;48.572;7.838;2023-11-22T10:20:21;6.63;;;4.53;;
14191;SDS011;7177;48.572;7.838;2023-11-22T10:22:51;4.67;;;3.63;;
14191;SDS011;7177;48.572;7.838;2023-11-22T10:25:16;4.20;;;3.37;;
14191;SDS011;7177;48.572;7.838;2023-11-22T10:27:44;5.07;;;4.03;;
14191;SDS011;7177;48.572;7.838;2023-11-22T10:30:11;5.00;;;3.90;;
14191;SDS011;7177;48.572;7.838;2023-11-22T10:32:37;5.77;;;3.60;;
14191;SDS011;7177;48.572;7.838;2023-11-22T10:35:04;3.77;;;3.30;;
14191;SDS011;7177;48.572;7.838;2023-11-22T10:37:31;6.93;;;4.03;;
14191;SDS011;7177;48.572;7.838;2023-11-22T10:39:57;6.40;;;4.93;;
14191;SDS011;7177;48.572;7.838;2023-11-22T10:42:23;5.10;;;3.60;;
14191;SDS011;7177;48.572;7.838;2023-11-22T10:44:49;4.60;;;4.00;;
14191;SDS011;7177;48.572;7.838;2023-11-22T10:47:15;5.30;;;4.10;;
14191;SDS011;7177;48.572;7.838;2023-11-22T10:49:44;9.63;;;4.00;;
14191;SDS011;7177;48.572;7.838;2023-11-22T10:52:09;8.90;;;5.27;;
14191;SDS011;7177;48.572;7.838;2023-11-22T10:54:39;12.73;;;5.47;;
14191;SDS011;7177;48.572;7.838;2023-11-22T10:57:14;6.83;;;4.00;;
14191;SDS011;7177;48.572;7.838;2023-11-22T10:59:41;4.70;;;3.43;;
14191;SDS011;7177;48.572;7.838;2023-11-22T11:02:15;4.30;;;3.50;;
14191;SDS011;7177;48.572;7.838;2023-11-22T11:04:45;4.70;;;3.50;;
14191;SDS011;7177;48.572;7.838;2023-11-22T11:07:16;3.80;;;3.20;;
14191;SDS011;7177;48.572;7.838;2023-11-22T11:09:44;4.67;;;3.60;;
14191;SDS011;7177;48.572;7.838;2023-11-22T11:12:11;4.10;;;3.40;;
14191;SDS011;7177;48.572;7.838;2023-11-22T11:14:37;4.03;;;3.30;;
14191;SDS011;7177;48.572;7.838;2023-11-22T11:17:04;4.87;;;3.57;;
14191;SDS011;7177;48.572;7.838;2023-11-22T11:19:31;3.90;;;3.37;;
14191;SDS011;7177;48.572;7.838;2023-11-22T11:21:57;4.83;;;3.50;;
14191;SDS011;7177;48.572;7.838;2023-11-22T11:24:22;5.43;;;3.97;;
14191;SDS011;7177;48.572;7.838;2023-11-22T11:26:48;5.10;;;4.20;;
14191;SDS011;7177;48.572;7.838;2023-11-22T11:29:29;5.93;;;4.33;;
14191;SDS011;7177;48.572;7.838;2023-11-22T11:31:58;6.77;;;4.20;;
14191;SDS011;7177;48.572;7.838;2023-11-22T11:34:24;6.47;;;4.40;;
14191;SDS011;7177;48.572;7.838;2023-11-22T11:36:52;6.00;;;4.40;;
14191;SDS011;7177;48.572;7.838;2023-11-22T11:39:21;5.67;;;4.70;;
14191;SDS011;7177;48.572;7.838;2023-11-22T11:41:53;6.93;;;5.33;;
14191;SDS011;7177;48.572;7.838;2023-11-22T11:44:35;7.30;;;4.73;;
14191;SDS011;7177;48.572;7.838;2023-11-22T11:47:10;5.77;;;4.77;;
14191;SDS011;7177;48.572;7.838;2023-11-22T11:49:39;5.50;;;4.20;;
14191;SDS011;7177;48.572;7.838;2023-11-22T11:52:05;7.73;;;5.40;;
14191;SDS011;7177;48.572;7.838;2023-11-22T11:54:32;5.80;;;5.20;;
14191;SDS011;7177;48.572;7.838;2023-11-22T11:57:01;9.57;;;7.10;;
14191;SDS011;7177;48.572;7.838;2023-11-22T11:59:27;5.30;;;4.80;;
14191;SDS011;7177;48.572;7.838;2023-11-22T12:01:55;5.97;;;4.70;;
14191;SDS011;7177;48.572;7.838;2023-11-22T12:04:22;5.73;;;4.60;;
14191;SDS011;7177;48.572;7.838;2023-11-22T12:06:49;6.40;;;4.37;;
14191;SDS011;7177;48.572;7.838;2023-11-22T12:09:21;5.60;;;4.87;;
14191;SDS011;7177;48.572;7.838;2023-11-22T12:11:50;8.63;;;5.23;;
14191;SDS011;7177;48.572;7.838;2023-11-22T12:14:18;8.23;;;5.70;;
14191;SDS011;7177;48.572;7.838;2023-11-22T12:16:44;6.57;;;5.53;;
14191;SDS011;7177;48.572;7.838;2023-11-22T12:19:20;5.33;;;4.40;;
14191;SDS011;7177;48.572;7.838;2023-11-22T12:21:47;5.80;;;4.60;;
14191;SDS011;7177;48.572;7.838;2023-11-22T12:24:14;6.63;;;5.93;;
14191;SDS011;7177;48.572;7.838;2023-11-22T12:26:44;6.83;;;4.47;;
14191;SDS011;7177;48.572;7.838;2023-11-22T12:29:11;6.63;;;4.87;;
14191;SDS011;7177;48.572;7.838;2023-11-22T12:31:43;9.53;;;7.77;;
14191;SDS011;7177;48.572;7.838;2023-11-22T12:34:17;6.30;;;5.00;;
14191;SDS011;7177;48.572;7.838;2023-11-22T12:36:43;5.00;;;4.50;;
14191;SDS011;7177;48.572;7.838;2023-11-22T12:39:10;5.37;;;4.13;;
14191;SDS011;7177;48.572;7.838;2023-11-22T12:41:45;9.33;;;7.60;;
14191;SDS011;7177;48.572;7.838;2023-11-22T12:44:13;4.57;;;4.10;;
14191;SDS011;7177;48.572;7.838;2023-11-22T12:46:45;4.97;;;4.17;;
14191;SDS011;7177;48.572;7.838;2023-11-22T12:49:14;5.97;;;5.33;;
14191;SDS011;7177;48.572;7.838;2023-11-22T12:51:45;3.90;;;3.17;;
14191;SDS011;7177;48.572;7.838;2023-11-22T12:54:11;4.30;;;3.40;;
14191;SDS011;7177;48.572;7.838;2023-11-22T12:56:37;8.33;;;4.50;;
14191;SDS011;7177;48.572;7.838;2023-11-22T12:59:02;6.30;;;3.97;;
14191;SDS011;7177;48.572;7.838;2023-11-22T13:01:28;5.87;;;4.63;;
14191;SDS011;7177;48.572;7.838;2023-11-22T13:03:54;8.33;;;4.80;;
14191;SDS011;7177;48.572;7.838;2023-11-22T13:06:19;7.23;;;4.80;;
14191;SDS011;7177;48.572;7.838;2023-11-22T13:08:45;8.93;;;5.90;;
14191;SDS011;7177;48.572;7.838;2023-11-22T13:11:10;5.07;;;4.40;;
14191;SDS011;7177;48.572;7.838;2023-11-22T13:13:36;5.57;;;4.87;;
14191;SDS011;7177;48.572;7.838;2023-11-22T13:16:01;9.27;;;6.90;;
14191;SDS011;7177;48.572;7.838;2023-11-22T13:18:30;6.13;;;4.80;;
14191;SDS011;7177;48.572;7.838;2023-11-22T13:20:55;5.80;;;4.60;;
14191;SDS011;7177;48.572;7.838;2023-11-22T13:23:21;5.33;;;4.67;;
14191;SDS011;7177;48.572;7.838;2023-11-22T13:25:46;5.27;;;4.77;;
14191;SDS011;7177;48.572;7.838;2023-11-22T13:28:12;4.97;;;4.33;;
14191;SDS011;7177;48.572;7.838;2023-11-22T13:30:38;4.70;;;3.90;;
14191;SDS011;7177;48.572;7.838;2023-11-22T13:33:03;6.17;;;4.97;;
14191;SDS011;7177;48.572;7.838;2023-11-22T13:35:30;5.10;;;4.30;;
14191;SDS011;7177;48.572;7.838;2023-11-22T13:37:56;6.20;;;4.13;;
14191;SDS011;7177;48.572;7.838;2023-11-22T13:40:23;4.90;;;4.40;;
14191;SDS011;7177;48.572;7.838;2023-11-22T13:42:52;8.67;;;7.27;;
14191;SDS011;7177;48.572;7.838;2023-11-22T13:45:18;5.80;;;5.17;;
14191;SDS011;7177;48.572;7.838;2023-11-22T13:47:46;8.50;;;7.47;;
14191;SDS011;7177;48.572;7.838;2023-11-22T13:50:16;7.37;;;6.43;;
14191;SDS011;7177;48.572;7.838;2023-11-22T13:52:47;6.17;;;5.57;;
14191;SDS011;7177;48.572;7.838;2023-11-22T13:55:16;9.63;;;7.70;;
14191;SDS011;7177;48.572;7.838;2023-11-22T13:57:44;9.83;;;8.13;;
14191;SDS011;7177;48.572;7.838;2023-11-22T14:00:10;9.87;;;8.30;;
14191;SDS011;7177;48.572;7.838;2023-11-22T14:02:39;9.57;;;7.70;;
14191;SDS011;7177;48.572;7.838;2023-11-22T14:05:06;9.17;;;7.27;;
14191;SDS011;7177;48.572;7.838;2023-11-22T14:07:33;7.90;;;6.63;;
14191;SDS011;7177;48.572;7.838;2023-11-22T14:10:02;6.83;;;4.70;;
14191;SDS011;7177;48.572;7.838;2023-11-22T14:12:28;6.50;;;4.50;;
14191;SDS011;7177;48.572;7.838;2023-11-22T14:14:56;5.53;;;4.40;;
14191;SDS011;7177;48.572;7.838;2023-11-22T14:17:22;5.47;;;4.50;;
14191;SDS011;7177;48.572;7.838;2023-11-22T14:19:48;4.53;;;4.07;;
14191;SDS011;7177;48.572;7.838;2023-11-22T14:22:14;8.00;;;6.43;;
14191;SDS011;7177;48.572;7.838;2023-11-22T14:24:40;9.33;;;7.10;;
14191;SDS011;7177;48.572;7.838;2023-11-22T14:27:05;9.13;;;6.83;;
14191;SDS011;7177;48.572;7.838;2023-11-22T14:29:31;9.53;;;7.90;;
14191;SDS011;7177;48.572;7.838;2023-11-22T14:31:58;12.97;;;8.10;;
14191;SDS011;7177;48.572;7.838;2023-11-22T14:34:23;19.13;;;12.03;;
14191;SDS011;7177;48.572;7.838;2023-11-22T14:36:49;8.20;;;6.63;;
14191;SDS011;7177;48.572;7.838;2023-11-22T14:39:15;8.50;;;6.70;;
14191;SDS011;7177;48.572;7.838;2023-11-22T14:41:41;10.52;;;7.32;;
14191;SDS011;7177;48.572;7.838;2023-11-22T14:44:06;10.07;;;5.90;;
14191;SDS011;7177;48.572;7.838;2023-11-22T14:46:34;7.73;;;6.00;;
14191;SDS011;7177;48.572;7.838;2023-11-22T14:49:01;8.80;;;7.17;;
14191;SDS011;7177;48.572;7.838;2023-11-22T14:51:28;6.57;;;5.53;;
14191;SDS011;7177;48.572;7.838;2023-11-22T14:53:53;6.47;;;5.00;;
14191;SDS011;7177;48.572;7.838;2023-11-22T14:56:19;4.93;;;4.43;;